EW1922 Weather Reports


Display with metric or nautical units.
time (UTC)temp
F
wind
direction
speed
MPH
gust
MPH
rain 1hr
in
rain 24hr
in
rain mn
in
humidity
%
barometer
mb
20240522151646 61 132 2.0 5.0 0.00 0.00 0.00 25 1014.0
20240522150053 62 359 0.0 1.0 0.00 0.00 0.00 26 1014.3
20240522144538 60 359 0.0 0.0 0.00 0.00 0.00 27 1014.4
20240522143037 58 56 0.0 3.0 0.00 0.00 0.00 29 1014.5
20240522141538 57 359 0.0 0.0 0.00 0.00 0.00 29 1014.5
20240522140141 55 58 0.0 0.0 0.00 0.00 0.00 33 1014.5
20240522134612 51 359 0.0 0.0 0.00 0.00 0.00 35 1014.3
20240522133025 50 359 0.0 1.0 0.00 0.00 0.00 37 1014.5
20240522131522 47 359 0.0 5.0 0.00 0.00 0.00 39 1014.6
20240522130022 45 359 0.0 1.0 0.00 0.00 0.00 42 1014.6
20240522124524 45 359 0.0 0.0 0.00 0.00 0.00 42 1014.7
20240522123022 45 359 0.0 0.0 0.00 0.00 0.00 41 1014.8
20240522121517 48 359 0.0 2.0 0.00 0.00 0.00 37 1015.0
20240522120016 48 359 0.0 2.0 0.00 0.00 0.00 39 1015.1
20240522114516 47 359 0.0 0.0 0.00 0.00 0.00 37 1015.3
20240522113012 48 359 0.0 0.0 0.00 0.00 0.00 37 1015.2
20240522111528 48 359 0.0 2.0 0.00 0.00 0.00 35 1015.2
20240522110008 47 359 0.0 1.0 0.00 0.00 0.00 33 1015.3
20240522104509 47 359 0.0 0.0 0.00 0.00 0.00 31 1015.3
20240522103002 47 359 0.0 3.0 0.00 0.00 0.00 28 1015.5
20240522101600 45 359 0.0 0.0 0.00 0.00 0.00 28 1015.8
20240522100101 46 359 0.0 0.0 0.00 0.00 0.00 25 1015.8
20240522094556 46 59 0.0 0.0 0.00 0.00 0.00 25 1015.9
20240522093056 45 59 0.0 0.0 0.00 0.00 0.00 24 1016.0
20240522091607 45 359 0.0 0.0 0.00 0.00 0.00 23 1016.0
20240522090051 46 59 0.0 0.0 0.00 0.00 0.00 23 1016.2
20240522084548 46 359 0.0 1.0 0.00 0.00 0.00 22 1016.3
20240522083047 45 359 0.0 1.0 0.00 0.00 0.00 22 1016.4
20240522081546 45 359 0.0 2.0 0.00 0.00 0.00 22 1016.4
20240522080046 44 359 0.0 0.0 0.00 0.00 0.00 21 1016.4
20240522074542 45 359 0.0 3.0 0.00 0.00 0.00 21 1016.4
20240522073038 46 58 0.0 1.0 0.00 0.00 0.00 21 1016.4
20240522071534 47 359 0.0 0.0 0.00 0.00 0.00 21 1016.4
20240522070046 47 359 0.0 2.0 0.00 0.00 0.00 21 1016.5
20240522064537 47 55 0.0 0.0 0.00 0.00 0.00 20 1016.6
20240522063030 48 58 0.0 3.0 0.00 0.00 0.00 19 1016.8
20240522061537 49 359 0.0 0.0 0.00 0.00 0.00 18 1016.8
20240522060036 50 56 0.0 2.0 0.00 0.00 0.00 18 1016.9
20240522054529 50 359 0.0 0.0 0.00 0.00 0.00 18 1016.9
20240522053031 52 359 0.0 0.0 0.00 0.00 0.00 17 1017.0
20240522051535 53 359 0.0 0.0 0.00 0.00 0.00 16 1016.9
20240522050029 54 359 0.0 1.0 0.00 0.00 0.00 15 1016.8
20240522044528 54 359 0.0 2.0 0.00 0.00 0.00 15 1016.7
20240522043027 55 359 0.0 1.0 0.00 0.00 0.00 14 1016.5
20240522041527 55 359 0.0 1.0 0.00 0.00 0.00 13 1016.3
20240522040027 57 56 0.0 0.0 0.00 0.00 0.00 13 1016.2
20240522034527 59 359 0.0 0.0 0.00 0.00 0.00 12 1016.1
20240522033026 61 57 0.0 1.0 0.00 0.00 0.00 11 1016.0
20240522031529 63 58 0.0 1.0 0.00 0.00 0.00 10 1015.9
20240522030025 64 58 1.0 3.0 0.00 0.00 0.00 9 1015.8
20240522024526 65 60 3.0 5.0 0.00 0.00 0.00 9 1015.8
20240522023026 66 359 5.0 8.0 0.00 0.00 0.00 9 1015.8
20240522021524 67 359 3.0 8.0 0.00 0.00 0.00 8 1015.8
20240522020024 67 359 3.0 11.0 0.00 0.00 0.00 9 1015.7
20240522014525 67 85 4.0 9.0 0.00 0.00 0.00 9 1015.7
20240522013021 67 359 5.0 12.0 0.00 0.00 0.00 9 1015.8
20240522011521 67 359 3.0 11.0 0.00 0.00 0.00 9 1015.9
20240522010024 68 359 3.0 9.0 0.00 0.00 0.00 9 1016.2
20240522004523 68 359 4.0 11.0 0.00 0.00 0.00 8 1016.4
20240522003017 68 359 6.0 12.0 0.00 0.00 0.00 9 1016.4
20240522001517 68 359 3.0 15.0 0.00 0.00 0.00 9 1016.4
20240522000031 68 359 2.0 13.0 0.00 0.00 0.00 8 1016.6
20240521234512 69 359 3.0 11.0 0.00 0.00 0.00 8 1016.9
20240521233010 67 359 3.0 8.0 0.00 0.00 0.00 8 1017.1
20240521231508 67 359 4.0 9.0 0.00 0.00 0.00 8 1017.4
20240521230007 67 359 4.0 10.0 0.00 0.00 0.00 8 1017.5
20240521224505 67 44 1.0 6.0 0.00 0.00 0.00 8 1017.7
20240521223003 66 359 2.0 8.0 0.00 0.00 0.00 8 1017.8
20240521221501 65 32 4.0 14.0 0.00 0.00 0.00 9 1018.1
20240521220049 68 359 1.0 4.0 0.00 0.00 0.00 9 1018.3
20240521214511 65 359 3.0 6.0 0.00 0.00 0.00 10 1018.6
20240521213111 64 359 4.0 16.0 0.00 0.00 0.00 10 1018.8
20240521211535 65 58 6.0 11.0 0.00 0.00 0.00 10 1018.9
20240521210140 63 112 4.0 11.0 0.00 0.00 0.00 11 1019.1
20240521204544 64 359 0.0 5.0 0.00 0.00 0.00 12 1019.3
20240521203044 64 359 6.0 12.0 0.00 0.00 0.00 11 1019.4
20240521201635 63 30 3.0 11.0 0.00 0.00 0.00 12 1019.6
20240521200047 63 359 2.0 8.0 0.00 0.00 0.00 13 1019.8
20240521194641 63 359 4.0 9.0 0.00 0.00 0.00 12 1020.0
20240521193100 62 73 4.0 13.0 0.00 0.00 0.00 13 1020.3
20240521191543 61 359 3.0 10.0 0.00 0.00 0.00 14 1020.5
20240521190038 62 243 2.0 4.0 0.00 0.00 0.00 14 1020.7
20240521184640 60 359 4.0 11.0 0.00 0.00 0.00 14 1020.9
20240521183049 60 359 9.0 14.0 0.00 0.00 0.00 15 1020.9
20240521181530 59 359 4.0 14.0 0.00 0.00 0.00 14 1020.9
20240521180149 59 359 6.0 13.0 0.00 0.00 0.00 15 1021.0
20240521174558 59 359 5.0 9.0 0.00 0.00 0.00 16 1021.1
20240521173151 59 359 7.0 15.0 0.00 0.00 0.00 16 1021.2
20240521171609 58 359 4.0 12.0 0.00 0.00 0.00 17 1021.2
20240521170156 57 359 5.0 13.0 0.00 0.00 0.00 17 1021.1
20240521164558 57 359 9.0 12.0 0.00 0.00 0.00 18 1021.4
20240521163151 56 359 3.0 11.0 0.00 0.00 0.00 19 1021.5
20240521161604 55 359 9.0 14.0 0.00 0.00 0.00 20 1021.6
20240521160059 55 71 6.0 12.0 0.00 0.00 0.00 20 1021.6
20240521154542 55 359 7.0 12.0 0.00 0.00 0.00 19 1021.6
20240521153144 54 359 7.0 9.0 0.00 0.00 0.00 20 1021.5